createdAt,value
2022-08-14T00:01:37.910Z,2.03
2022-08-14T00:05:44.277Z,2.40
2022-08-14T00:09:56.066Z,2.30
2022-08-14T00:14:10.151Z,2.75
2022-08-14T00:19:06.937Z,2.00
2022-08-14T00:22:57.605Z,2.60
2022-08-14T00:27:02.478Z,2.58
2022-08-14T00:31:08.096Z,2.63
2022-08-14T00:35:12.883Z,3.05
2022-08-14T00:39:18.080Z,2.92
2022-08-14T00:43:21.297Z,3.00
2022-08-14T00:47:24.950Z,2.97
2022-08-14T00:51:34.672Z,2.80
2022-08-14T00:55:43.943Z,2.85
2022-08-14T00:59:46.814Z,3.00
2022-08-14T01:03:54.292Z,3.05
2022-08-14T01:07:58.475Z,2.75
2022-08-14T01:12:04.025Z,2.75
2022-08-14T01:16:13.955Z,2.53
2022-08-14T01:20:40.047Z,2.95
2022-08-14T01:24:45.319Z,2.83
2022-08-14T01:28:56.878Z,2.58
2022-08-14T01:33:00.646Z,2.67
2022-08-14T01:37:04.635Z,2.60
2022-08-14T01:41:15.928Z,2.42
2022-08-14T01:45:25.537Z,2.85
2022-08-14T01:49:35.576Z,2.78
2022-08-14T01:53:40.255Z,3.25
2022-08-14T01:57:49.561Z,3.00
2022-08-14T02:02:19.045Z,2.92
2022-08-14T02:06:32.425Z,3.17
2022-08-14T02:10:36.546Z,2.85
2022-08-14T02:15:00.685Z,2.88
2022-08-14T02:19:07.998Z,2.78
2022-08-14T02:23:11.475Z,3.13
2022-08-14T02:28:22.753Z,4.82
2022-08-14T02:31:43.322Z,3.75
2022-08-14T02:35:53.434Z,3.60
2022-08-14T02:40:05.565Z,3.33
2022-08-14T02:44:10.450Z,3.42
2022-08-14T02:49:03.047Z,3.00
2022-08-14T02:52:56.442Z,2.95
2022-08-14T02:57:15.120Z,2.75
2022-08-14T03:01:24.032Z,3.25
2022-08-14T03:05:35.954Z,3.13
2022-08-14T03:10:26.129Z,2.70
2022-08-14T03:14:04.787Z,3.03
2022-08-14T03:18:11.600Z,2.97
2022-08-14T03:22:17.753Z,2.85
2022-08-14T03:26:30.193Z,3.17
2022-08-14T03:30:39.872Z,3.05
2022-08-14T03:34:52.608Z,4.00
2022-08-14T03:39:11.790Z,3.67
2022-08-14T03:43:21.386Z,3.33
2022-08-14T03:47:24.176Z,3.50
2022-08-14T03:51:47.314Z,2.80
2022-08-14T03:55:52.385Z,4.28
2022-08-14T03:59:55.179Z,4.68
2022-08-14T04:04:05.502Z,3.15
2022-08-14T04:08:28.932Z,3.25
2022-08-14T04:12:35.940Z,4.18
2022-08-14T04:16:42.151Z,3.72
2022-08-14T04:20:54.751Z,3.97
2022-08-14T04:25:02.219Z,3.65
2022-08-14T04:29:15.279Z,3.75
2022-08-14T04:33:20.901Z,3.70
2022-08-14T04:37:45.014Z,3.85
2022-08-14T04:42:09.213Z,3.13
2022-08-14T04:46:54.831Z,3.35
2022-08-14T04:50:54.057Z,3.10
2022-08-14T04:54:57.641Z,2.90
2022-08-14T04:59:09.711Z,3.72
2022-08-14T05:03:14.888Z,3.50
2022-08-14T05:07:17.962Z,4.47
2022-08-14T05:11:40.698Z,3.28
2022-08-14T05:15:45.034Z,4.85
2022-08-14T05:21:56.246Z,3.83
2022-08-14T05:24:17.786Z,3.92
2022-08-14T05:28:23.131Z,3.45
2022-08-14T05:32:28.161Z,3.55
2022-08-14T05:36:33.330Z,3.13
2022-08-14T05:40:39.849Z,3.35
2022-08-14T05:44:43.409Z,3.25
2022-08-14T05:48:50.350Z,3.22
2022-08-14T05:52:55.058Z,2.65
2022-08-14T05:56:58.517Z,2.90
2022-08-14T06:01:01.257Z,2.38
2022-08-14T06:05:05.540Z,1.88
2022-08-14T06:09:12.801Z,1.80
2022-08-14T06:13:16.896Z,1.58
2022-08-14T06:17:26.191Z,1.40
2022-08-14T06:21:29.123Z,1.10
2022-08-14T06:25:34.158Z,0.80
2022-08-14T06:29:39.468Z,0.60
2022-08-14T06:35:02.675Z,1.02
2022-08-14T06:38:05.337Z,1.60
2022-08-14T06:42:09.447Z,1.88
2022-08-14T06:46:34.037Z,1.65
2022-08-14T06:50:37.050Z,1.98
2022-08-14T06:54:40.252Z,2.30
2022-08-14T06:58:44.499Z,1.52
2022-08-14T07:03:05.331Z,1.02
2022-08-14T07:07:08.739Z,0.98
2022-08-14T07:11:12.438Z,1.50
2022-08-14T07:15:16.589Z,1.60
2022-08-14T07:19:21.118Z,1.45
2022-08-14T07:23:25.781Z,1.63
2022-08-14T07:27:28.558Z,1.95
2022-08-14T07:31:40.217Z,1.75
2022-08-14T07:35:58.315Z,2.05
2022-08-14T07:40:02.272Z,1.95
2022-08-14T07:44:32.625Z,1.50
2022-08-14T07:48:30.050Z,0.28
2022-08-14T07:52:32.834Z,0.20
2022-08-14T07:56:47.063Z,0.35
2022-08-14T08:00:56.376Z,0.63
2022-08-14T08:05:01.629Z,1.00
2022-08-14T08:09:05.819Z,0.20
2022-08-14T08:13:11.023Z,0.15
2022-08-14T08:17:14.142Z,0.20
2022-08-14T08:21:18.310Z,0.00
2022-08-14T08:25:21.109Z,0.00
2022-08-14T08:29:29.152Z,0.17
2022-08-14T08:33:37.609Z,0.63
2022-08-14T08:37:43.754Z,0.77
2022-08-14T08:41:49.292Z,1.20
2022-08-14T08:46:00.307Z,1.48
2022-08-14T08:50:03.453Z,1.48
2022-08-14T08:54:31.038Z,1.40
2022-08-14T08:58:38.850Z,1.48
2022-08-14T09:02:44.330Z,1.63
2022-08-14T09:07:09.504Z,1.63
2022-08-14T09:11:19.817Z,1.42
2022-08-14T09:15:24.378Z,1.50
2022-08-14T09:19:28.101Z,1.83
2022-08-14T09:23:34.762Z,1.60
2022-08-14T09:27:53.727Z,1.98
2022-08-14T09:32:00.706Z,1.73
2022-08-14T09:36:43.737Z,1.55
2022-08-14T09:40:57.031Z,1.52
2022-08-14T09:45:13.115Z,1.55
2022-08-14T09:49:16.712Z,1.63
2022-08-14T09:54:19.206Z,1.40
2022-08-14T09:58:19.145Z,1.30
2022-08-14T10:02:28.493Z,1.55
2022-08-14T10:06:31.661Z,1.40
2022-08-14T10:10:37.443Z,1.50
2022-08-14T10:14:41.310Z,1.25
2022-08-14T10:18:45.745Z,1.65
2022-08-14T10:23:14.241Z,1.38
2022-08-14T10:27:18.242Z,1.35
2022-08-14T10:31:25.405Z,1.63
2022-08-14T10:35:41.123Z,1.38
2022-08-14T10:40:02.108Z,1.05
2022-08-14T10:44:21.666Z,1.08
2022-08-14T10:48:37.116Z,1.67
2022-08-14T10:52:46.285Z,1.08
2022-08-14T10:56:51.701Z,0.85
2022-08-14T11:00:58.886Z,1.02
2022-08-14T11:05:08.552Z,1.10
2022-08-14T11:09:16.935Z,1.10
2022-08-14T11:13:24.186Z,1.02
2022-08-14T11:17:27.665Z,1.15
2022-08-14T11:21:36.027Z,0.70
2022-08-14T11:25:53.289Z,0.43
2022-08-14T11:30:00.684Z,0.10
2022-08-14T11:34:32.367Z,0.30
2022-08-14T11:38:40.586Z,0.77
2022-08-14T11:42:56.641Z,2.00
2022-08-14T11:51:14.615Z,3.50
2022-08-14T11:55:23.628Z,5.38
2022-08-14T11:59:32.822Z,8.48
2022-08-14T12:03:51.185Z,8.18
2022-08-14T12:07:55.227Z,5.05
2022-08-14T12:11:58.297Z,4.18
2022-08-14T12:16:06.354Z,4.32
2022-08-14T12:20:15.683Z,6.10
2022-08-14T12:24:36.635Z,5.22
2022-08-14T12:29:00.194Z,3.90
2022-08-14T12:33:06.619Z,5.18
2022-08-14T12:37:10.273Z,4.43
2022-08-14T12:41:21.120Z,5.13
2022-08-14T12:45:33.138Z,3.97
2022-08-14T12:49:37.410Z,3.70
2022-08-14T12:53:41.063Z,2.70
2022-08-14T12:57:45.601Z,2.15
2022-08-14T13:02:01.829Z,2.30
2022-08-14T13:06:08.033Z,2.40
2022-08-14T13:10:47.568Z,2.00
2022-08-14T13:14:39.407Z,1.75
2022-08-14T13:18:43.075Z,1.20
2022-08-14T13:22:51.797Z,0.88
2022-08-14T13:26:59.163Z,0.80
2022-08-14T13:31:09.048Z,0.88
2022-08-14T13:35:17.448Z,0.55
2022-08-14T13:39:24.557Z,0.60
2022-08-14T13:43:31.624Z,0.40
2022-08-14T13:47:45.255Z,0.30
2022-08-14T13:51:53.116Z,0.20
2022-08-14T14:00:07.759Z,0.20
2022-08-14T14:04:19.179Z,0.10
2022-08-14T14:08:46.092Z,0.10
2022-08-14T14:12:56.229Z,0.10
2022-08-14T14:16:59.862Z,0.00
2022-08-14T14:21:03.622Z,0.00
2022-08-14T14:25:07.239Z,0.00
2022-08-14T14:29:13.962Z,0.00
2022-08-14T14:33:42.183Z,0.00
2022-08-14T14:37:41.194Z,0.00
2022-08-14T14:41:45.383Z,0.00
2022-08-14T14:45:50.922Z,0.00
2022-08-14T14:49:57.051Z,0.00
2022-08-14T14:54:01.738Z,0.00
2022-08-14T14:58:07.183Z,0.00
2022-08-14T15:02:20.990Z,0.00
2022-08-14T15:06:30.246Z,0.00
2022-08-14T15:10:40.008Z,0.00
2022-08-14T15:14:57.001Z,0.00
2022-08-14T15:19:02.218Z,0.00
2022-08-14T15:23:12.118Z,0.00
2022-08-14T15:27:15.563Z,0.00
2022-08-14T15:31:29.171Z,0.00
2022-08-14T15:35:34.452Z,0.00
2022-08-14T15:39:41.881Z,0.00
2022-08-14T15:43:44.721Z,0.00
2022-08-14T15:47:51.152Z,0.10
2022-08-14T15:51:58.604Z,0.00
2022-08-14T15:56:01.731Z,0.10
2022-08-14T16:00:40.425Z,0.28
2022-08-14T16:04:50.800Z,0.10
2022-08-14T16:09:00.987Z,0.10
2022-08-14T16:13:12.939Z,0.15
2022-08-14T16:17:21.532Z,0.20
2022-08-14T16:21:24.901Z,0.20
2022-08-14T16:25:34.535Z,0.15
2022-08-14T16:29:41.970Z,0.30
2022-08-14T16:33:58.981Z,0.30
2022-08-14T16:38:19.539Z,0.40
2022-08-14T16:42:39.163Z,0.65
2022-08-14T16:46:56.819Z,0.68
2022-08-14T16:51:01.615Z,0.35
2022-08-14T16:55:11.887Z,0.65
2022-08-14T16:59:21.125Z,0.68
2022-08-14T17:03:40.732Z,0.55
2022-08-14T17:08:41.349Z,0.70
2022-08-14T17:12:35.317Z,0.68
2022-08-14T17:16:39.540Z,0.90
2022-08-14T17:21:02.013Z,0.82
2022-08-14T17:25:09.966Z,0.60
2022-08-14T17:29:16.570Z,0.82
2022-08-14T17:33:23.136Z,1.00
2022-08-14T17:37:28.601Z,1.27
2022-08-14T17:41:37.551Z,0.98
2022-08-14T17:45:46.624Z,1.38
2022-08-14T17:49:53.561Z,0.98
2022-08-14T17:54:02.441Z,1.42
2022-08-14T17:58:20.389Z,1.02
2022-08-14T18:02:31.357Z,1.50
2022-08-14T18:06:39.658Z,1.13
2022-08-14T18:11:00.436Z,1.48
2022-08-14T18:15:14.115Z,1.42
2022-08-14T18:19:21.820Z,1.33
2022-08-14T18:23:28.274Z,1.50
2022-08-14T18:27:35.861Z,1.73
2022-08-14T18:31:42.326Z,1.40
2022-08-14T18:35:58.214Z,1.63
2022-08-14T18:40:38.139Z,2.05
2022-08-14T18:45:15.296Z,2.28
2022-08-14T18:49:20.311Z,1.75
2022-08-14T18:53:34.236Z,2.05
2022-08-14T18:58:20.784Z,2.08
2022-08-14T19:02:44.636Z,2.30
2022-08-14T19:06:56.227Z,2.17
2022-08-14T19:11:01.878Z,2.75
2022-08-14T19:15:10.971Z,2.65
2022-08-14T19:19:17.990Z,2.67
2022-08-14T19:23:42.746Z,3.70
2022-08-14T19:28:31.538Z,2.58
2022-08-14T19:32:40.749Z,2.75
2022-08-14T19:37:05.678Z,3.45
2022-08-14T19:41:15.174Z,2.72
2022-08-14T19:45:18.646Z,2.88
2022-08-14T19:50:08.168Z,3.00
2022-08-14T19:53:58.528Z,3.33
2022-08-14T19:58:02.638Z,4.25
2022-08-14T20:02:07.360Z,3.75
2022-08-14T20:06:10.904Z,3.20
2022-08-14T20:11:06.623Z,3.50
2022-08-14T20:14:51.630Z,3.17
2022-08-14T20:18:55.330Z,3.33
2022-08-14T20:22:58.659Z,3.83
2022-08-14T20:27:40.103Z,3.08
2022-08-14T20:31:42.901Z,3.95
2022-08-14T20:35:49.001Z,4.03
2022-08-14T20:39:54.760Z,3.60
2022-08-14T20:44:20.793Z,4.50
2022-08-14T20:48:52.673Z,4.18
2022-08-14T20:52:54.294Z,3.85
2022-08-14T20:57:07.325Z,3.83
2022-08-14T21:01:33.598Z,4.18
2022-08-14T21:05:36.437Z,3.83
2022-08-14T21:10:06.551Z,4.00
2022-08-14T21:14:24.530Z,3.92
2022-08-14T21:18:34.294Z,4.82
2022-08-14T21:22:37.102Z,3.72
2022-08-14T21:26:52.621Z,3.90
2022-08-14T21:31:03.207Z,3.88
2022-08-14T21:35:10.378Z,4.35
2022-08-14T21:39:16.312Z,4.35
2022-08-14T21:43:21.517Z,3.90
2022-08-14T21:47:24.866Z,4.05
2022-08-14T21:51:52.832Z,4.20
2022-08-14T21:55:52.141Z,4.38
2022-08-14T22:00:30.059Z,4.13
2022-08-14T22:04:40.702Z,4.55
2022-08-14T22:08:46.237Z,4.13
2022-08-14T22:13:00.445Z,4.80
2022-08-14T22:17:12.683Z,4.57
2022-08-14T22:21:17.099Z,4.10
2022-08-14T22:25:21.602Z,3.80
2022-08-14T22:29:24.557Z,4.07
2022-08-14T22:33:30.810Z,4.35
2022-08-14T22:37:34.339Z,3.95
2022-08-14T22:41:42.565Z,4.03
2022-08-14T22:45:55.729Z,3.58
2022-08-14T22:50:29.298Z,3.55
2022-08-14T22:54:52.157Z,3.85
2022-08-14T22:58:46.972Z,4.10
2022-08-14T23:02:56.654Z,3.40
2022-08-14T23:07:04.856Z,4.28
2022-08-14T23:11:10.178Z,3.85
2022-08-14T23:15:16.209Z,4.00
2022-08-14T23:19:24.016Z,3.83
2022-08-14T23:23:26.858Z,3.75
2022-08-14T23:28:03.903Z,4.10
2022-08-14T23:31:59.207Z,3.63
2022-08-14T23:36:03.199Z,4.15
2022-08-14T23:40:20.656Z,3.95
2022-08-14T23:44:32.125Z,3.60
2022-08-14T23:48:40.295Z,3.40
2022-08-14T23:53:07.382Z,3.45
2022-08-14T23:57:10.766Z,3.30
